sensor_id;sensor_type;location;lat;lon;timestamp;pressure;altitude;pressure_sealevel;temperature;humidity
62333;BME280;48624;49.812;8.562;2024-03-23T00:53:58;99711.78;;;10.19;90.43
62333;BME280;48624;49.812;8.562;2024-03-23T00:56:24;99716.59;;;10.25;90.27
62333;BME280;48624;49.812;8.562;2024-03-23T00:58:49;99704.94;;;10.17;91.40
62333;BME280;48624;49.812;8.562;2024-03-23T01:01:15;99697.59;;;10.20;90.90
62333;BME280;48624;49.812;8.562;2024-03-23T01:03:40;99690.59;;;10.08;91.88
62333;BME280;48624;49.812;8.562;2024-03-23T01:06:06;99688.22;;;10.05;91.91
62333;BME280;48624;49.812;8.562;2024-03-23T01:08:31;99684.09;;;10.00;91.51
62333;BME280;48624;49.812;8.562;2024-03-23T01:10:58;99689.88;;;9.94;91.77
62333;BME280;48624;49.812;8.562;2024-03-23T01:13:24;99683.75;;;9.94;91.26
62333;BME280;48624;49.812;8.562;2024-03-23T01:15:50;99674.72;;;9.96;90.97
62333;BME280;48624;49.812;8.562;2024-03-23T01:18:16;99681.69;;;9.97;90.86
62333;BME280;48624;49.812;8.562;2024-03-23T01:20:43;99680.38;;;10.03;90.27
62333;BME280;48624;49.812;8.562;2024-03-23T01:23:08;99673.53;;;10.12;89.38
62333;BME280;48624;49.812;8.562;2024-03-23T01:25:33;99680.38;;;10.14;89.65
62333;BME280;48624;49.812;8.562;2024-03-23T01:27:58;99683.28;;;10.11;90.03
62333;BME280;48624;49.812;8.562;2024-03-23T01:30:24;99683.28;;;10.11;90.71
62333;BME280;48624;49.812;8.562;2024-03-23T01:32:49;99685.44;;;10.18;89.89
62333;BME280;48624;49.812;8.562;2024-03-23T01:35:14;99678.09;;;10.21;90.15
62333;BME280;48624;49.812;8.562;2024-03-23T01:37:39;99673.88;;;10.19;90.29
62333;BME280;48624;49.812;8.562;2024-03-23T01:40:05;99669.19;;;10.22;89.50
62333;BME280;48624;49.812;8.562;2024-03-23T01:42:31;99670.50;;;10.05;90.83
62333;BME280;48624;49.812;8.562;2024-03-23T01:44:56;99662.59;;;10.17;90.55
62333;BME280;48624;49.812;8.562;2024-03-23T01:47:21;99664.25;;;10.18;90.35
62333;BME280;48624;49.812;8.562;2024-03-23T01:49:47;99671.84;;;9.88;93.23
62333;BME280;48624;49.812;8.562;2024-03-23T01:52:13;99674.38;;;9.90;92.47
62333;BME280;48624;49.812;8.562;2024-03-23T01:54:38;99663.53;;;9.93;92.59
62333;BME280;48624;49.812;8.562;2024-03-23T01:57:04;99646.13;;;10.02;91.16
62333;BME280;48624;49.812;8.562;2024-03-23T01:59:29;99651.97;;;10.05;90.74
62333;BME280;48624;49.812;8.562;2024-03-23T02:02:01;99645.72;;;9.95;91.14
62333;BME280;48624;49.812;8.562;2024-03-23T02:04:26;99648.97;;;9.98;90.42
62333;BME280;48624;49.812;8.562;2024-03-23T02:06:51;99656.19;;;9.96;90.43
62333;BME280;48624;49.812;8.562;2024-03-23T02:09:17;99646.59;;;9.95;90.39
62333;BME280;48624;49.812;8.562;2024-03-23T02:11:42;99657.88;;;9.97;90.14
62333;BME280;48624;49.812;8.562;2024-03-23T02:14:07;99650.56;;;10.01;89.80
62333;BME280;48624;49.812;8.562;2024-03-23T02:16:33;99645.16;;;10.03;90.24
62333;BME280;48624;49.812;8.562;2024-03-23T02:18:58;99640.56;;;10.05;90.10
62333;BME280;48624;49.812;8.562;2024-03-23T02:21:23;99630.81;;;10.05;90.33
62333;BME280;48624;49.812;8.562;2024-03-23T02:23:48;99624.69;;;10.05;90.21
62333;BME280;48624;49.812;8.562;2024-03-23T02:26:14;99625.88;;;10.00;90.77
62333;BME280;48624;49.812;8.562;2024-03-23T02:28:40;99613.50;;;10.01;90.59
62333;BME280;48624;49.812;8.562;2024-03-23T02:31:05;99611.47;;;9.93;91.43
62333;BME280;48624;49.812;8.562;2024-03-23T02:33:30;99601.72;;;9.94;90.92
62333;BME280;48624;49.812;8.562;2024-03-23T02:35:57;99596.06;;;9.98;90.67
62333;BME280;48624;49.812;8.562;2024-03-23T02:38:22;99607.75;;;9.96;90.50
62333;BME280;48624;49.812;8.562;2024-03-23T02:40:48;99608.22;;;10.01;90.01
62333;BME280;48624;49.812;8.562;2024-03-23T02:43:13;99607.00;;;9.94;91.56
62333;BME280;48624;49.812;8.562;2024-03-23T02:45:38;99606.91;;;9.95;91.73
62333;BME280;48624;49.812;8.562;2024-03-23T02:48:04;99602.31;;;9.97;92.32
62333;BME280;48624;49.812;8.562;2024-03-23T02:50:29;99598.00;;;9.96;92.41
62333;BME280;48624;49.812;8.562;2024-03-23T02:52:54;99594.53;;;9.96;92.92
62333;BME280;48624;49.812;8.562;2024-03-23T02:55:20;99591.63;;;9.99;92.65
62333;BME280;48624;49.812;8.562;2024-03-23T02:57:46;99588.97;;;10.10;92.16
62333;BME280;48624;49.812;8.562;2024-03-23T03:00:12;99584.63;;;10.09;92.91
62333;BME280;48624;49.812;8.562;2024-03-23T03:02:38;99589.81;;;10.11;93.06
62333;BME280;48624;49.812;8.562;2024-03-23T03:05:04;99583.66;;;10.10;93.54
62333;BME280;48624;49.812;8.562;2024-03-23T03:07:30;99586.19;;;10.00;94.14
62333;BME280;48624;49.812;8.562;2024-03-23T03:09:56;99579.47;;;9.96;94.75
62333;BME280;48624;49.812;8.562;2024-03-23T03:12:21;99573.81;;;10.01;95.26
62333;BME280;48624;49.812;8.562;2024-03-23T03:14:46;99567.44;;;10.04;95.19
62333;BME280;48624;49.812;8.562;2024-03-23T03:17:12;99562.50;;;10.10;94.41
62333;BME280;48624;49.812;8.562;2024-03-23T03:19:38;99559.97;;;10.09;94.80
62333;BME280;48624;49.812;8.562;2024-03-23T03:22:03;99553.31;;;10.14;94.66
62333;BME280;48624;49.812;8.562;2024-03-23T03:24:29;99538.66;;;10.10;95.86
62333;BME280;48624;49.812;8.562;2024-03-23T03:26:56;99547.19;;;10.25;94.46
62333;BME280;48624;49.812;8.562;2024-03-23T03:29:23;99551.41;;;10.17;95.23
62333;BME280;48624;49.812;8.562;2024-03-23T03:31:48;99560.91;;;10.19;95.61
62333;BME280;48624;49.812;8.562;2024-03-23T03:34:15;99563.31;;;10.22;95.23
62333;BME280;48624;49.812;8.562;2024-03-23T03:36:40;99559.06;;;10.43;93.40
62333;BME280;48624;49.812;8.562;2024-03-23T03:39:05;99561.09;;;10.50;93.03
62333;BME280;48624;49.812;8.562;2024-03-23T03:41:32;99564.13;;;10.34;94.33
62333;BME280;48624;49.812;8.562;2024-03-23T03:43:57;99566.78;;;10.46;94.10
62333;BME280;48624;49.812;8.562;2024-03-23T03:46:27;99570.34;;;10.56;93.66
62333;BME280;48624;49.812;8.562;2024-03-23T03:48:54;99574.09;;;10.53;93.54
62333;BME280;48624;49.812;8.562;2024-03-23T03:51:19;99580.34;;;10.41;95.64
62333;BME280;48624;49.812;8.562;2024-03-23T03:53:44;99565.31;;;10.74;93.96
62333;BME280;48624;49.812;8.562;2024-03-23T03:56:10;99567.59;;;10.58;94.66
62333;BME280;48624;49.812;8.562;2024-03-23T03:58:35;99554.34;;;10.58;93.78
62333;BME280;48624;49.812;8.562;2024-03-23T04:01:00;99566.03;;;10.76;93.03
62333;BME280;48624;49.812;8.562;2024-03-23T04:03:26;99554.59;;;10.76;93.56
62333;BME280;48624;49.812;8.562;2024-03-23T04:05:52;99551.09;;;10.75;93.23
62333;BME280;48624;49.812;8.562;2024-03-23T04:08:18;99548.81;;;10.82;92.26
62333;BME280;48624;49.812;8.562;2024-03-23T04:10:43;99551.19;;;10.85;92.19
62333;BME280;48624;49.812;8.562;2024-03-23T04:13:08;99556.47;;;10.64;93.44
62333;BME280;48624;49.812;8.562;2024-03-23T04:15:34;99552.28;;;10.82;92.61
62333;BME280;48624;49.812;8.562;2024-03-23T04:17:59;99557.09;;;10.89;91.40
62333;BME280;48624;49.812;8.562;2024-03-23T04:20:24;99558.25;;;10.96;90.83
62333;BME280;48624;49.812;8.562;2024-03-23T04:22:50;99548.59;;;10.95;91.11
62333;BME280;48624;49.812;8.562;2024-03-23T04:25:15;99549.56;;;10.94;91.06
62333;BME280;48624;49.812;8.562;2024-03-23T04:27:40;99547.44;;;10.88;91.29
62333;BME280;48624;49.812;8.562;2024-03-23T04:30:07;99559.94;;;10.97;90.75
62333;BME280;48624;49.812;8.562;2024-03-23T04:32:39;99560.75;;;10.98;91.23
62333;BME280;48624;49.812;8.562;2024-03-23T04:35:05;99575.69;;;10.99;92.77
62333;BME280;48624;49.812;8.562;2024-03-23T04:37:37;99624.84;;;10.70;96.12
62333;BME280;48624;49.812;8.562;2024-03-23T04:40:06;99617.97;;;9.66;100.00
62333;BME280;48624;49.812;8.562;2024-03-23T04:42:32;99626.72;;;9.08;100.00
62333;BME280;48624;49.812;8.562;2024-03-23T04:44:58;99634.63;;;8.97;100.00
62333;BME280;48624;49.812;8.562;2024-03-23T04:47:24;99640.84;;;8.71;100.00
62333;BME280;48624;49.812;8.562;2024-03-23T04:49:49;99651.06;;;8.52;100.00
62333;BME280;48624;49.812;8.562;2024-03-23T04:52:15;99641.28;;;8.41;100.00
62333;BME280;48624;49.812;8.562;2024-03-23T04:54:41;99647.38;;;8.41;100.00
62333;BME280;48624;49.812;8.562;2024-03-23T04:57:06;99624.97;;;8.10;100.00
62333;BME280;48624;49.812;8.562;2024-03-23T04:59:32;99638.28;;;8.21;100.00
62333;BME280;48624;49.812;8.562;2024-03-23T05:01:58;99668.34;;;8.18;100.00
62333;BME280;48624;49.812;8.562;2024-03-23T05:04:23;99669.00;;;7.70;100.00
62333;BME280;48624;49.812;8.562;2024-03-23T05:06:48;99669.50;;;8.01;100.00
62333;BME280;48624;49.812;8.562;2024-03-23T05:09:14;99680.59;;;8.19;100.00
62333;BME280;48624;49.812;8.562;2024-03-23T05:11:40;99689.78;;;8.14;100.00
62333;BME280;48624;49.812;8.562;2024-03-23T05:14:05;99669.63;;;8.13;100.00
62333;BME280;48624;49.812;8.562;2024-03-23T05:16:30;99669.00;;;7.70;100.00
62333;BME280;48624;49.812;8.562;2024-03-23T05:18:55;99698.34;;;8.04;100.00
62333;BME280;48624;49.812;8.562;2024-03-23T05:21:21;99713.75;;;7.98;100.00
62333;BME280;48624;49.812;8.562;2024-03-23T05:23:46;99724.41;;;8.09;100.00
62333;BME280;48624;49.812;8.562;2024-03-23T05:26:12;99718.06;;;8.12;100.00
62333;BME280;48624;49.812;8.562;2024-03-23T05:28:37;99727.34;;;7.91;100.00
62333;BME280;48624;49.812;8.562;2024-03-23T05:31:03;99747.50;;;8.05;100.00
62333;BME280;48624;49.812;8.562;2024-03-23T05:33:28;99742.44;;;8.02;100.00
62333;BME280;48624;49.812;8.562;2024-03-23T05:35:57;99753.50;;;8.08;100.00
62333;BME280;48624;49.812;8.562;2024-03-23T05:38:23;99759.75;;;8.07;100.00
62333;BME280;48624;49.812;8.562;2024-03-23T05:40:58;99759.41;;;7.85;100.00
62333;BME280;48624;49.812;8.562;2024-03-23T05:43:24;99750.13;;;8.18;100.00
62333;BME280;48624;49.812;8.562;2024-03-23T05:45:56;99752.53;;;7.70;100.00
62333;BME280;48624;49.812;8.562;2024-03-23T05:48:21;99754.56;;;7.92;100.00
62333;BME280;48624;49.812;8.562;2024-03-23T05:50:48;99767.66;;;8.07;100.00
62333;BME280;48624;49.812;8.562;2024-03-23T05:53:15;99779.13;;;7.80;100.00
62333;BME280;48624;49.812;8.562;2024-03-23T05:55:42;99788.88;;;7.92;100.00
62333;BME280;48624;49.812;8.562;2024-03-23T05:58:07;99790.06;;;7.60;100.00
62333;BME280;48624;49.812;8.562;2024-03-23T06:00:33;99784.88;;;7.59;100.00
62333;BME280;48624;49.812;8.562;2024-03-23T06:02:58;99792.66;;;7.47;100.00
62333;BME280;48624;49.812;8.562;2024-03-23T06:05:24;99799.66;;;7.61;100.00
62333;BME280;48624;49.812;8.562;2024-03-23T06:07:49;99801.88;;;7.68;100.00
62333;BME280;48624;49.812;8.562;2024-03-23T06:10:15;99788.28;;;7.33;100.00
62333;BME280;48624;49.812;8.562;2024-03-23T06:12:40;99793.69;;;7.45;100.00
62333;BME280;48624;49.812;8.562;2024-03-23T06:15:06;99795.69;;;7.41;100.00
62333;BME280;48624;49.812;8.562;2024-03-23T06:17:38;99795.09;;;7.23;100.00
62333;BME280;48624;49.812;8.562;2024-03-23T06:20:04;99814.44;;;7.36;100.00
62333;BME280;48624;49.812;8.562;2024-03-23T06:22:31;99808.75;;;7.15;100.00
62333;BME280;48624;49.812;8.562;2024-03-23T06:24:56;99820.25;;;7.42;99.86
62333;BME280;48624;49.812;8.562;2024-03-23T06:27:22;99818.31;;;7.31;99.73
62333;BME280;48624;49.812;8.562;2024-03-23T06:29:47;99826.97;;;7.33;99.62
62333;BME280;48624;49.812;8.562;2024-03-23T06:32:12;99844.88;;;7.13;97.96
62333;BME280;48624;49.812;8.562;2024-03-23T06:34:38;99861.72;;;7.25;98.73
62333;BME280;48624;49.812;8.562;2024-03-23T06:37:06;99867.84;;;7.26;98.58
62333;BME280;48624;49.812;8.562;2024-03-23T06:39:31;99886.28;;;6.97;98.65
62333;BME280;48624;49.812;8.562;2024-03-23T06:41:56;99883.47;;;7.14;97.61
62333;BME280;48624;49.812;8.562;2024-03-23T06:44:21;99873.91;;;6.99;98.44
62333;BME280;48624;49.812;8.562;2024-03-23T06:46:47;99891.19;;;7.03;98.16
62333;BME280;48624;49.812;8.562;2024-03-23T06:49:15;99898.69;;;7.38;97.11
62333;BME280;48624;49.812;8.562;2024-03-23T06:51:41;99921.19;;;7.15;96.18
62333;BME280;48624;49.812;8.562;2024-03-23T06:54:06;99922.97;;;7.14;96.77
62333;BME280;48624;49.812;8.562;2024-03-23T06:56:32;99924.31;;;6.92;96.10
62333;BME280;48624;49.812;8.562;2024-03-23T06:58:58;99929.19;;;6.84;96.74
62333;BME280;48624;49.812;8.562;2024-03-23T07:01:23;99927.94;;;6.61;97.63
62333;BME280;48624;49.812;8.562;2024-03-23T07:03:48;99941.06;;;6.91;97.13
62333;BME280;48624;49.812;8.562;2024-03-23T07:06:14;99942.34;;;6.70;96.45
62333;BME280;48624;49.812;8.562;2024-03-23T07:08:39;99934.06;;;6.61;95.03
62333;BME280;48624;49.812;8.562;2024-03-23T07:11:04;99958.78;;;6.73;94.54
62333;BME280;48624;49.812;8.562;2024-03-23T07:13:30;99964.31;;;6.69;95.89
62333;BME280;48624;49.812;8.562;2024-03-23T07:15:55;99968.16;;;6.63;95.01
62333;BME280;48624;49.812;8.562;2024-03-23T07:18:22;99972.94;;;6.42;97.60
62333;BME280;48624;49.812;8.562;2024-03-23T07:20:57;99983.22;;;6.61;96.90
62333;BME280;48624;49.812;8.562;2024-03-23T07:23:23;99975.63;;;6.71;96.83
62333;BME280;48624;49.812;8.562;2024-03-23T07:25:59;99995.06;;;6.99;94.98
62333;BME280;48624;49.812;8.562;2024-03-23T07:28:24;99985.16;;;7.46;92.76
62333;BME280;48624;49.812;8.562;2024-03-23T07:31:02;100010.38;;;7.06;94.75
62333;BME280;48624;49.812;8.562;2024-03-23T07:33:27;100023.78;;;6.73;95.02
62333;BME280;48624;49.812;8.562;2024-03-23T07:35:53;100028.69;;;6.79;93.87
62333;BME280;48624;49.812;8.562;2024-03-23T07:38:19;100047.44;;;7.03;94.00
62333;BME280;48624;49.812;8.562;2024-03-23T07:40:44;100044.41;;;6.95;94.26
62333;BME280;48624;49.812;8.562;2024-03-23T07:43:09;100038.41;;;6.93;94.61
62333;BME280;48624;49.812;8.562;2024-03-23T07:45:34;100050.75;;;7.07;94.41
62333;BME280;48624;49.812;8.562;2024-03-23T07:48:00;100057.84;;;7.21;90.50
62333;BME280;48624;49.812;8.562;2024-03-23T07:50:25;100067.66;;;7.03;91.80
62333;BME280;48624;49.812;8.562;2024-03-23T07:52:50;100064.88;;;7.20;92.70
62333;BME280;48624;49.812;8.562;2024-03-23T07:55:16;100063.69;;;7.41;90.91
62333;BME280;48624;49.812;8.562;2024-03-23T07:57:41;100071.56;;;7.55;90.50
62333;BME280;48624;49.812;8.562;2024-03-23T08:00:07;100079.75;;;7.50;90.64
62333;BME280;48624;49.812;8.562;2024-03-23T08:02:33;100090.97;;;7.54;89.49
62333;BME280;48624;49.812;8.562;2024-03-23T08:04:58;100099.75;;;7.55;89.57
62333;BME280;48624;49.812;8.562;2024-03-23T08:07:23;100110.44;;;7.52;86.44
62333;BME280;48624;49.812;8.562;2024-03-23T08:09:50;100112.34;;;7.78;87.14
62333;BME280;48624;49.812;8.562;2024-03-23T08:12:15;100119.72;;;7.73;87.03
62333;BME280;48624;49.812;8.562;2024-03-23T08:14:41;100122.72;;;7.67;86.78
62333;BME280;48624;49.812;8.562;2024-03-23T08:17:06;100132.88;;;7.88;86.00
62333;BME280;48624;49.812;8.562;2024-03-23T08:19:31;100132.50;;;7.80;86.46
62333;BME280;48624;49.812;8.562;2024-03-23T08:21:58;100141.38;;;7.93;84.99
62333;BME280;48624;49.812;8.562;2024-03-23T08:24:24;100132.69;;;7.91;86.38
62333;BME280;48624;49.812;8.562;2024-03-23T08:26:49;100144.06;;;8.06;85.66
62333;BME280;48624;49.812;8.562;2024-03-23T08:29:14;100144.06;;;8.21;83.74
62333;BME280;48624;49.812;8.562;2024-03-23T08:31:39;100125.28;;;8.25;82.58
62333;BME280;48624;49.812;8.562;2024-03-23T08:34:05;100129.53;;;8.28;84.83
62333;BME280;48624;49.812;8.562;2024-03-23T08:36:30;100124.97;;;8.44;82.32
62333;BME280;48624;49.812;8.562;2024-03-23T08:38:55;100132.84;;;8.31;83.24
62333;BME280;48624;49.812;8.562;2024-03-23T08:41:21;100135.03;;;7.96;80.85
62333;BME280;48624;49.812;8.562;2024-03-23T08:43:46;100136.34;;;8.17;81.13
62333;BME280;48624;49.812;8.562;2024-03-23T08:46:13;100133.28;;;8.38;80.24
62333;BME280;48624;49.812;8.562;2024-03-23T08:48:44;100131.91;;;8.18;80.29
62333;BME280;48624;49.812;8.562;2024-03-23T08:51:11;100141.56;;;8.46;78.47
62333;BME280;48624;49.812;8.562;2024-03-23T08:53:38;100140.94;;;8.28;80.20
62333;BME280;48624;49.812;8.562;2024-03-23T08:56:04;100141.78;;;8.14;80.69
62333;BME280;48624;49.812;8.562;2024-03-23T08:58:35;100142.38;;;8.19;78.49
62333;BME280;48624;49.812;8.562;2024-03-23T09:01:12;100145.75;;;8.36;79.38
62333;BME280;48624;49.812;8.562;2024-03-23T09:03:40;100143.13;;;8.22;79.37
62333;BME280;48624;49.812;8.562;2024-03-23T09:06:09;100132.13;;;8.57;77.96
62333;BME280;48624;49.812;8.562;2024-03-23T09:08:35;100146.63;;;8.64;77.64
62333;BME280;48624;49.812;8.562;2024-03-23T09:11:05;100157.56;;;8.85;77.24
62333;BME280;48624;49.812;8.562;2024-03-23T09:13:35;100157.50;;;8.87;75.21
62333;BME280;48624;49.812;8.562;2024-03-23T09:16:01;100159.91;;;9.18;73.70
62333;BME280;48624;49.812;8.562;2024-03-23T09:18:27;100161.22;;;8.97;75.16
62333;BME280;48624;49.812;8.562;2024-03-23T09:20:52;100154.69;;;9.03;75.46
62333;BME280;48624;49.812;8.562;2024-03-23T09:23:21;100165.75;;;9.36;74.13
62333;BME280;48624;49.812;8.562;2024-03-23T09:25:46;100160.78;;;9.44;73.37
62333;BME280;48624;49.812;8.562;2024-03-23T09:28:11;100153.56;;;9.20;71.36
62333;BME280;48624;49.812;8.562;2024-03-23T09:30:37;100154.97;;;9.52;72.71
62333;BME280;48624;49.812;8.562;2024-03-23T09:33:11;100167.06;;;9.69;72.26
62333;BME280;48624;49.812;8.562;2024-03-23T09:35:38;100164.28;;;9.96;71.21
62333;BME280;48624;49.812;8.562;2024-03-23T09:38:03;100161.75;;;9.69;71.73
62333;BME280;48624;49.812;8.562;2024-03-23T09:40:29;100157.63;;;9.78;71.12
62333;BME280;48624;49.812;8.562;2024-03-23T09:42:54;100156.81;;;10.14;70.17
62333;BME280;48624;49.812;8.562;2024-03-23T09:45:21;100158.66;;;10.01;70.49
62333;BME280;48624;49.812;8.562;2024-03-23T09:47:47;100155.25;;;10.12;71.12
62333;BME280;48624;49.812;8.562;2024-03-23T09:50:13;100158.81;;;10.24;70.95
62333;BME280;48624;49.812;8.562;2024-03-23T09:52:39;100163.59;;;10.45;68.84
62333;BME280;48624;49.812;8.562;2024-03-23T09:55:05;100152.81;;;10.09;69.95
62333;BME280;48624;49.812;8.562;2024-03-23T09:57:31;100157.44;;;10.31;68.60
62333;BME280;48624;49.812;8.562;2024-03-23T09:59:56;100158.13;;;10.59;67.44
62333;BME280;48624;49.812;8.562;2024-03-23T10:02:23;100149.22;;;10.85;66.31
62333;BME280;48624;49.812;8.562;2024-03-23T10:04:49;100144.97;;;11.06;66.88
62333;BME280;48624;49.812;8.562;2024-03-23T10:07:21;100153.84;;;11.30;65.19
62333;BME280;48624;49.812;8.562;2024-03-23T10:09:49;100151.50;;;11.61;62.45
62333;BME280;48624;49.812;8.562;2024-03-23T10:12:19;100146.44;;;11.58;62.83
62333;BME280;48624;49.812;8.562;2024-03-23T10:14:46;100149.72;;;11.84;60.83
62333;BME280;48624;49.812;8.562;2024-03-23T10:17:21;100143.00;;;12.03;59.00
62333;BME280;48624;49.812;8.562;2024-03-23T10:19:52;100143.78;;;11.80;57.04
62333;BME280;48624;49.812;8.562;2024-03-23T10:22:22;100143.38;;;11.51;56.88
62333;BME280;48624;49.812;8.562;2024-03-23T10:24:48;100144.63;;;11.70;55.90
62333;BME280;48624;49.812;8.562;2024-03-23T10:27:20;100143.47;;;11.38;57.86
62333;BME280;48624;49.812;8.562;2024-03-23T10:29:47;100150.78;;;11.59;57.32
62333;BME280;48624;49.812;8.562;2024-03-23T10:32:14;100151.69;;;11.35;55.73
62333;BME280;48624;49.812;8.562;2024-03-23T10:34:40;100144.41;;;11.26;57.86
62333;BME280;48624;49.812;8.562;2024-03-23T10:37:06;100135.66;;;11.36;56.66
62333;BME280;48624;49.812;8.562;2024-03-23T10:39:36;100136.94;;;11.19;57.62
62333;BME280;48624;49.812;8.562;2024-03-23T10:42:04;100143.75;;;10.99;56.90
62333;BME280;48624;49.812;8.562;2024-03-23T10:44:30;100137.53;;;10.87;58.12
62333;BME280;48624;49.812;8.562;2024-03-23T10:46:56;100144.84;;;11.08;56.70
62333;BME280;48624;49.812;8.562;2024-03-23T10:49:32;100156.00;;;10.89;55.38
62333;BME280;48624;49.812;8.562;2024-03-23T10:51:59;100182.97;;;10.69;55.05
62333;BME280;48624;49.812;8.562;2024-03-23T10:54:26;100187.44;;;9.67;57.90
62333;BME280;48624;49.812;8.562;2024-03-23T10:57:02;100188.94;;;9.05;62.15
62333;BME280;48624;49.812;8.562;2024-03-23T10:59:29;100208.31;;;8.49;66.30
62333;BME280;48624;49.812;8.562;2024-03-23T11:01:57;100215.88;;;7.97;69.52
62333;BME280;48624;49.812;8.562;2024-03-23T11:04:33;100226.78;;;7.76;71.20
62333;BME280;48624;49.812;8.562;2024-03-23T11:06:59;100227.47;;;7.18;74.79
62333;BME280;48624;49.812;8.562;2024-03-23T11:09:42;100216.53;;;7.10;76.58
62333;BME280;48624;49.812;8.562;2024-03-23T11:15:05;100235.16;;;7.38;78.00
62333;BME280;48624;49.812;8.562;2024-03-23T11:17:30;100219.19;;;7.25;79.85
62333;BME280;48624;49.812;8.562;2024-03-23T11:19:59;100225.72;;;7.64;76.87
62333;BME280;48624;49.812;8.562;2024-03-23T11:25:25;100213.59;;;8.05;74.64
62333;BME280;48624;49.812;8.562;2024-03-23T11:27:52;100235.00;;;7.86;73.97
62333;BME280;48624;49.812;8.562;2024-03-23T11:30:25;100220.47;;;7.64;76.04
62333;BME280;48624;49.812;8.562;2024-03-23T11:32:52;100217.84;;;7.78;75.64
62333;BME280;48624;49.812;8.562;2024-03-23T11:38:08;100190.03;;;8.31;77.02
62333;BME280;48624;49.812;8.562;2024-03-23T11:40:44;100168.31;;;8.69;74.23
62333;BME280;48624;49.812;8.562;2024-03-23T11:43:15;100159.25;;;9.14;70.34
62333;BME280;48624;49.812;8.562;2024-03-23T11:45:47;100152.84;;;9.44;70.52
62333;BME280;48624;49.812;8.562;2024-03-23T11:48:17;100152.97;;;9.81;67.69
62333;BME280;48624;49.812;8.562;2024-03-23T11:50:44;100158.34;;;9.41;65.71
62333;BME280;48624;49.812;8.562;2024-03-23T11:53:18;100144.59;;;9.88;65.32
62333;BME280;48624;49.812;8.562;2024-03-23T11:58:10;100143.16;;;11.07;62.37
62333;BME280;48624;49.812;8.562;2024-03-23T12:00:35;100133.38;;;10.96;59.86
62333;BME280;48624;49.812;8.562;2024-03-23T12:03:04;100126.84;;;11.47;59.77
62333;BME280;48624;49.812;8.562;2024-03-23T12:05:30;100116.28;;;11.82;59.47
62333;BME280;48624;49.812;8.562;2024-03-23T12:08:14;100105.91;;;12.01;57.83
62333;BME280;48624;49.812;8.562;2024-03-23T12:10:40;100094.63;;;12.76;54.18
62333;BME280;48624;49.812;8.562;2024-03-23T12:13:05;100098.78;;;12.90;53.68
62333;BME280;48624;49.812;8.562;2024-03-23T12:15:31;100092.00;;;13.18;52.77
62333;BME280;48624;49.812;8.562;2024-03-23T12:18:07;100100.03;;;13.07;51.69
62333;BME280;48624;49.812;8.562;2024-03-23T12:20:32;100093.75;;;13.08;51.33
62333;BME280;48624;49.812;8.562;2024-03-23T12:23:08;100092.06;;;13.50;49.36
62333;BME280;48624;49.812;8.562;2024-03-23T12:25:39;100087.19;;;13.34;50.00
62333;BME280;48624;49.812;8.562;2024-03-23T12:28:05;100088.63;;;12.95;50.03
62333;BME280;48624;49.812;8.562;2024-03-23T12:30:33;100095.28;;;12.24;52.43
62333;BME280;48624;49.812;8.562;2024-03-23T12:32:58;100092.78;;;12.11;53.80
62333;BME280;48624;49.812;8.562;2024-03-23T12:35:24;100091.31;;;11.84;55.22
62333;BME280;48624;49.812;8.562;2024-03-23T12:37:49;100092.03;;;11.75;55.72
62333;BME280;48624;49.812;8.562;2024-03-23T12:40:14;100089.63;;;11.83;55.11
62333;BME280;48624;49.812;8.562;2024-03-23T12:42:40;100093.69;;;11.30;57.10
62333;BME280;48624;49.812;8.562;2024-03-23T12:45:05;100092.56;;;11.10;59.17
62333;BME280;48624;49.812;8.562;2024-03-23T12:47:31;100092.94;;;11.17;59.63
62333;BME280;48624;49.812;8.562;2024-03-23T12:49:56;100096.16;;;11.09;59.14
62333;BME280;48624;49.812;8.562;2024-03-23T12:52:21;100105.84;;;11.21;59.94
62333;BME280;48624;49.812;8.562;2024-03-23T12:54:49;100114.81;;;10.96;60.81
62333;BME280;48624;49.812;8.562;2024-03-23T12:57:14;100105.69;;;10.76;63.17
62333;BME280;48624;49.812;8.562;2024-03-23T12:59:40;100097.88;;;10.37;64.05
62333;BME280;48624;49.812;8.562;2024-03-23T13:02:05;100099.06;;;10.08;65.22
62333;BME280;48624;49.812;8.562;2024-03-23T13:04:31;100093.56;;;9.98;66.76
62333;BME280;48624;49.812;8.562;2024-03-23T13:06:56;100093.81;;;9.82;68.68
62333;BME280;48624;49.812;8.562;2024-03-23T13:09:22;100113.84;;;9.61;69.16
62333;BME280;48624;49.812;8.562;2024-03-23T13:11:47;100166.59;;;10.14;68.18
62333;BME280;48624;49.812;8.562;2024-03-23T13:14:12;100142.59;;;9.39;71.86
62333;BME280;48624;49.812;8.562;2024-03-23T13:16:40;100146.78;;;8.33;78.97
62333;BME280;48624;49.812;8.562;2024-03-23T13:19:07;100144.63;;;8.11;79.84
62333;BME280;48624;49.812;8.562;2024-03-23T13:21:32;100137.97;;;7.76;83.22
62333;BME280;48624;49.812;8.562;2024-03-23T13:23:57;100127.50;;;7.60;85.94
62333;BME280;48624;49.812;8.562;2024-03-23T13:26:24;100133.34;;;7.51;91.13
62333;BME280;48624;49.812;8.562;2024-03-23T13:28:49;100129.00;;;7.64;89.92
62333;BME280;48624;49.812;8.562;2024-03-23T13:31:17;100136.00;;;8.37;88.75
62333;BME280;48624;49.812;8.562;2024-03-23T13:33:42;100130.03;;;8.90;88.79
62333;BME280;48624;49.812;8.562;2024-03-23T13:36:09;100136.75;;;9.47;88.61
62333;BME280;48624;49.812;8.562;2024-03-23T13:38:35;100136.66;;;10.38;83.82
62333;BME280;48624;49.812;8.562;2024-03-23T13:41:00;100139.63;;;10.46;78.92
62333;BME280;48624;49.812;8.562;2024-03-23T13:43:27;100137.75;;;11.08;77.36
62333;BME280;48624;49.812;8.562;2024-03-23T13:45:54;100132.41;;;11.44;72.29
62333;BME280;48624;49.812;8.562;2024-03-23T13:48:21;100139.09;;;11.73;70.18
62333;BME280;48624;49.812;8.562;2024-03-23T13:50:47;100138.72;;;11.89;68.45
62333;BME280;48624;49.812;8.562;2024-03-23T13:53:15;100134.16;;;11.79;67.33
62333;BME280;48624;49.812;8.562;2024-03-23T13:55:47;100119.75;;;12.28;65.00
62333;BME280;48624;49.812;8.562;2024-03-23T13:58:15;100119.63;;;12.41;63.33
62333;BME280;48624;49.812;8.562;2024-03-23T14:00:41;100116.38;;;12.26;62.59